Time;durP1;ratioP1;P1;durP2;ratioP2;P2;SDS_P1;SDS_P2;PMS_P1;PMS_P2;Temp;Humidity;BMP_temperature;BMP_pressure;BME280_temperature;BME280_humidity;BME280_pressure;Samples;Min_cycle;Max_cycle;Signal;HPM_P1;HPM_P2
2024/01/13 00:01:50;;;;;;;16.10;3.90;;;;;;;;;;5046990;28;20377;-75
2024/01/13 00:04:16;;;;;;;9.85;3.25;;;;;;;;;;5047008;28;20009;-75
2024/01/13 00:06:42;;;;;;;14.27;2.97;;;;;;;;;;5048261;28;20013;-75
2024/01/13 00:09:08;;;;;;;12.52;3.03;;;;;;;;;;5048414;28;20013;-75
2024/01/13 00:11:34;;;;;;;12.25;3.53;;;;;;;;;;5048415;28;20019;-75
2024/01/13 00:14:00;;;;;;;8.70;3.13;;;;;;;;;;5046961;28;20017;-75
2024/01/13 00:16:26;;;;;;;7.72;2.38;;;;;;;;;;5048228;28;20056;-75
2024/01/13 00:18:52;;;;;;;7.88;2.35;;;;;;;;;;5046964;28;20477;-75
2024/01/13 00:21:18;;;;;;;7.65;2.35;;;;;;;;;;5048009;28;20022;-75
2024/01/13 00:23:44;;;;;;;7.10;2.30;;;;;;;;;;5048508;28;20419;-75
2024/01/13 00:26:10;;;;;;;8.93;2.40;;;;;;;;;;5046779;28;20013;-75
2024/01/13 00:28:37;;;;;;;12.48;2.60;;;;;;;;;;5046808;28;20113;-75
2024/01/13 00:31:04;;;;;;;6.43;1.92;;;;;;;;;;5046712;28;20071;-75
2024/01/13 00:33:30;;;;;;;6.25;2.10;;;;;;;;;;5047032;28;20465;-75
2024/01/13 00:35:56;;;;;;;14.32;2.63;;;;;;;;;;5051799;28;20095;-75
2024/01/13 00:38:22;;;;;;;6.78;2.50;;;;;;;;;;5050474;28;20017;-76
2024/01/13 00:40:48;;;;;;;8.25;2.10;;;;;;;;;;5051537;28;20033;-75
2024/01/13 00:43:14;;;;;;;7.15;2.38;;;;;;;;;;5050586;28;20044;-75
2024/01/13 00:45:40;;;;;;;9.07;2.50;;;;;;;;;;5051837;28;20379;-75
2024/01/13 00:48:06;;;;;;;9.70;2.70;;;;;;;;;;5051603;28;20017;-76
2024/01/13 00:50:33;;;;;;;9.18;2.90;;;;;;;;;;5051470;28;20017;-75
2024/01/13 00:52:59;;;;;;;13.00;2.50;;;;;;;;;;5049775;28;20017;-75
2024/01/13 00:55:25;;;;;;;11.35;2.50;;;;;;;;;;5050234;28;20104;-75
2024/01/13 00:57:51;;;;;;;10.30;3.00;;;;;;;;;;5051633;28;20386;-75
2024/01/13 01:00:17;;;;;;;12.85;3.20;;;;;;;;;;5049915;28;20068;-75
2024/01/13 01:02:43;;;;;;;7.70;2.50;;;;;;;;;;5051152;28;20120;-75
2024/01/13 01:05:09;;;;;;;9.77;3.00;;;;;;;;;;5051364;28;20013;-75
2024/01/13 01:07:35;;;;;;;9.88;3.35;;;;;;;;;;5051307;28;20009;-75
2024/01/13 01:10:01;;;;;;;9.73;2.90;;;;;;;;;;5050904;28;20044;-75
2024/01/13 01:12:27;;;;;;;7.55;2.80;;;;;;;;;;5051158;28;20467;-75
2024/01/13 01:14:53;;;;;;;11.35;2.78;;;;;;;;;;5049869;28;20020;-75
2024/01/13 01:17:19;;;;;;;12.70;3.05;;;;;;;;;;5049679;28;20017;-75
2024/01/13 01:19:45;;;;;;;11.95;3.30;;;;;;;;;;5049760;28;20017;-75
2024/01/13 01:22:11;;;;;;;9.45;2.72;;;;;;;;;;5049629;28;20515;-75
2024/01/13 01:24:37;;;;;;;8.00;2.88;;;;;;;;;;5049568;28;20373;-75
2024/01/13 01:27:03;;;;;;;8.23;2.60;;;;;;;;;;5050772;28;20503;-75
2024/01/13 01:29:29;;;;;;;10.52;3.10;;;;;;;;;;5049922;28;20542;-76
2024/01/13 01:31:55;;;;;;;13.38;3.00;;;;;;;;;;5049520;28;20048;-75
2024/01/13 01:34:21;;;;;;;6.82;3.03;;;;;;;;;;5049415;28;20023;-75
2024/01/13 01:36:47;;;;;;;10.10;2.30;;;;;;;;;;5050491;28;20041;-75
2024/01/13 01:39:13;;;;;;;11.43;2.40;;;;;;;;;;5049419;28;20017;-75
2024/01/13 01:41:39;;;;;;;13.02;2.22;;;;;;;;;;5049307;28;20040;-75
2024/01/13 01:44:05;;;;;;;9.85;1.90;;;;;;;;;;5049132;28;20121;-75
2024/01/13 01:46:31;;;;;;;14.18;2.35;;;;;;;;;;5050343;28;20017;-75
2024/01/13 01:48:59;;;;;;;9.68;2.08;;;;;;;;;;5050525;28;20017;-75
2024/01/13 01:51:26;;;;;;;9.75;2.03;;;;;;;;;;5050404;28;20048;-75
2024/01/13 01:53:52;;;;;;;11.45;2.17;;;;;;;;;;5049000;28;20051;-75
2024/01/13 01:56:20;;;;;;;7.05;2.00;;;;;;;;;;5050203;28;20021;-75
2024/01/13 01:58:51;;;;;;;12.77;2.20;;;;;;;;;;5049100;28;20527;-75
2024/01/13 02:01:17;;;;;;;10.32;2.20;;;;;;;;;;5050233;28;20509;-75
2024/01/13 02:03:44;;;;;;;7.63;2.35;;;;;;;;;;5048806;28;20013;-75
2024/01/13 02:06:10;;;;;;;10.45;2.28;;;;;;;;;;5048643;28;20021;-75
2024/01/13 02:08:40;;;;;;;11.07;2.13;;;;;;;;;;5048926;28;20339;-75
2024/01/13 02:11:06;;;;;;;9.32;2.80;;;;;;;;;;5049989;28;20060;-76
2024/01/13 02:13:32;;;;;;;8.18;2.30;;;;;;;;;;5049954;28;20244;-75
2024/01/13 02:15:58;;;;;;;8.68;2.40;;;;;;;;;;5049910;28;20555;-76
2024/01/13 02:18:24;;;;;;;10.00;2.55;;;;;;;;;;5048804;28;20116;-75
2024/01/13 02:20:50;;;;;;;12.35;2.60;;;;;;;;;;5049945;28;20025;-75
2024/01/13 02:23:16;;;;;;;10.25;2.67;;;;;;;;;;5049537;28;20017;-75
2024/01/13 02:25:42;;;;;;;12.00;2.67;;;;;;;;;;5048673;28;20209;-75
2024/01/13 02:28:08;;;;;;;13.50;3.10;;;;;;;;;;5049592;28;20095;-75
2024/01/13 02:30:34;;;;;;;13.02;2.88;;;;;;;;;;5048333;28;20009;-75
2024/01/13 02:33:00;;;;;;;12.65;2.80;;;;;;;;;;5048036;28;20325;-75
2024/01/13 02:35:26;;;;;;;10.88;3.08;;;;;;;;;;5048233;28;20075;-75
2024/01/13 02:37:52;;;;;;;7.75;2.75;;;;;;;;;;5048473;28;20078;-75
2024/01/13 02:40:18;;;;;;;11.40;2.95;;;;;;;;;;5049499;28;20013;-75
2024/01/13 02:42:44;;;;;;;6.85;2.75;;;;;;;;;;5048000;28;20025;-76
2024/01/13 02:45:11;;;;;;;9.55;2.55;;;;;;;;;;5048441;28;20126;-76
2024/01/13 02:47:49;;;;;;;7.97;2.78;;;;;;;;;;5049261;28;20017;-75
2024/01/13 02:50:16;;;;;;;6.47;2.25;;;;;;;;;;5049514;28;20021;-75
2024/01/13 02:52:44;;;;;;;6.93;2.10;;;;;;;;;;5047858;28;20075;-75
2024/01/13 02:55:10;;;;;;;8.18;2.30;;;;;;;;;;5049306;28;20041;-75
2024/01/13 02:57:37;;;;;;;9.80;2.28;;;;;;;;;;5047608;28;20021;-75
2024/01/13 03:00:04;;;;;;;7.25;2.30;;;;;;;;;;5048053;28;20032;-75
2024/01/13 03:02:30;;;;;;;6.60;2.30;;;;;;;;;;5048924;28;20110;-74
2024/01/13 03:04:56;;;;;;;10.38;2.75;;;;;;;;;;5049386;28;20032;-75
2024/01/13 03:07:22;;;;;;;5.72;2.35;;;;;;;;;;5048941;28;20377;-75
2024/01/13 03:09:48;;;;;;;6.93;1.92;;;;;;;;;;5048011;28;20082;-75
2024/01/13 03:12:14;;;;;;;8.98;1.95;;;;;;;;;;5047923;28;20021;-74
2024/01/13 03:14:40;;;;;;;6.68;1.80;;;;;;;;;;5047562;28;20019;-74
2024/01/13 03:17:06;;;;;;;7.18;1.85;;;;;;;;;;5047532;28;20032;-75
2024/01/13 03:19:32;;;;;;;7.78;1.92;;;;;;;;;;5047769;28;20021;-75
2024/01/13 03:21:58;;;;;;;7.85;1.80;;;;;;;;;;5049112;28;20024;-75
2024/01/13 03:24:24;;;;;;;9.38;2.30;;;;;;;;;;5048683;28;20009;-75
2024/01/13 03:26:50;;;;;;;5.47;1.83;;;;;;;;;;5048703;28;20377;-75
2024/01/13 03:29:16;;;;;;;5.85;1.70;;;;;;;;;;5048820;28;20020;-74
2024/01/13 03:31:42;;;;;;;10.05;1.48;;;;;;;;;;5048723;28;20017;-75
2024/01/13 03:34:08;;;;;;;6.05;1.67;;;;;;;;;;5047129;28;20017;-75
2024/01/13 03:36:34;;;;;;;4.57;1.60;;;;;;;;;;5047153;28;20041;-75
2024/01/13 03:39:00;;;;;;;4.57;1.48;;;;;;;;;;5047263;28;20033;-75
2024/01/13 03:41:26;;;;;;;4.22;1.27;;;;;;;;;;5047115;28;20025;-75
2024/01/13 03:43:52;;;;;;;10.48;1.58;;;;;;;;;;5048232;28;20017;-74
2024/01/13 03:46:18;;;;;;;8.30;2.25;;;;;;;;;;5048640;28;20461;-75
2024/01/13 03:48:45;;;;;;;5.35;1.10;;;;;;;;;;5048661;28;20039;-75
2024/01/13 03:51:12;;;;;;;3.97;1.38;;;;;;;;;;5048645;28;20470;-75
2024/01/13 03:53:38;;;;;;;9.27;1.50;;;;;;;;;;5046973;28;20071;-75
2024/01/13 03:56:04;;;;;;;4.93;1.30;;;;;;;;;;5048433;28;20576;-75
2024/01/13 03:58:30;;;;;;;5.95;1.20;;;;;;;;;;5048384;28;20094;-75
2024/01/13 04:00:56;;;;;;;5.88;1.10;;;;;;;;;;5048503;28;20090;-74
2024/01/13 04:03:22;;;;;;;7.97;1.42;;;;;;;;;;5046945;28;20025;-74
2024/01/13 04:05:48;;;;;;;3.15;1.05;;;;;;;;;;5047342;28;20102;-75
2024/01/13 04:08:15;;;;;;;3.92;1.20;;;;;;;;;;5048363;28;20025;-75
2024/01/13 04:10:41;;;;;;;4.05;1.10;;;;;;;;;;5050221;28;20005;-75
2024/01/13 04:13:11;;;;;;;2.08;0.90;;;;;;;;;;5052176;28;20016;-75
2024/01/13 04:15:37;;;;;;;1.73;0.63;;;;;;;;;;5052339;28;20118;-75
2024/01/13 04:18:03;;;;;;;3.80;0.52;;;;;;;;;;5052338;28;20096;-75
2024/01/13 04:20:29;;;;;;;1.20;0.68;;;;;;;;;;5050694;28;20428;-75
2024/01/13 04:22:55;;;;;;;3.05;0.50;;;;;;;;;;5051818;28;20564;-75
2024/01/13 04:25:21;;;;;;;3.85;0.50;;;;;;;;;;5050834;28;20021;-75
2024/01/13 04:27:48;;;;;;;6.28;0.70;;;;;;;;;;5050801;28;20423;-75
2024/01/13 04:30:14;;;;;;;3.55;0.47;;;;;;;;;;5050948;28;20017;-75
2024/01/13 04:32:41;;;;;;;4.10;0.60;;;;;;;;;;5052016;28;20024;-74
2024/01/13 04:35:07;;;;;;;6.70;0.40;;;;;;;;;;5050361;28;20112;-75
2024/01/13 04:37:33;;;;;;;2.03;0.32;;;;;;;;;;5051902;28;20311;-75
2024/01/13 04:39:59;;;;;;;1.40;0.30;;;;;;;;;;5051914;28;20021;-75
2024/01/13 04:42:25;;;;;;;3.03;0.25;;;;;;;;;;5050474;28;20032;-75
2024/01/13 04:44:51;;;;;;;2.17;0.30;;;;;;;;;;5050327;28;20028;-75
2024/01/13 04:47:17;;;;;;;4.68;0.40;;;;;;;;;;5050388;28;20461;-75
2024/01/13 04:49:43;;;;;;;16.00;1.25;;;;;;;;;;5051470;28;20063;-75
2024/01/13 04:52:09;;;;;;;40.72;2.60;;;;;;;;;;5050198;28;20067;-75
2024/01/13 04:54:35;;;;;;;102.80;5.88;;;;;;;;;;5050522;28;20063;-75
2024/01/13 04:57:01;;;;;;;99.55;5.60;;;;;;;;;;5051485;28;20048;-75
2024/01/13 04:59:27;;;;;;;2.45;0.32;;;;;;;;;;5051432;28;20028;-75
2024/01/13 05:01:53;;;;;;;4.50;0.40;;;;;;;;;;5050045;28;20028;-75
2024/01/13 05:04:20;;;;;;;0.60;0.32;;;;;;;;;;5050148;28;20017;-75
2024/01/13 05:06:46;;;;;;;1.95;0.28;;;;;;;;;;5051989;28;20005;-75
2024/01/13 05:09:12;;;;;;;1.30;0.25;;;;;;;;;;5051313;28;20031;-75
2024/01/13 05:11:38;;;;;;;1.08;0.20;;;;;;;;;;5049777;28;20017;-75
2024/01/13 05:14:04;;;;;;;1.85;0.30;;;;;;;;;;5050774;28;20032;-75
2024/01/13 05:16:31;;;;;;;4.60;0.40;;;;;;;;;;5051211;28;20017;-75
2024/01/13 05:18:57;;;;;;;3.58;0.70;;;;;;;;;;5049771;28;20017;-74
2024/01/13 05:21:23;;;;;;;2.55;0.40;;;;;;;;;;5049208;28;20032;-75
2024/01/13 05:23:49;;;;;;;4.60;0.50;;;;;;;;;;5050918;28;20016;-75
2024/01/13 05:26:15;;;;;;;2.70;0.43;;;;;;;;;;5049624;28;20017;-75
2024/01/13 05:28:41;;;;;;;3.53;0.40;;;;;;;;;;5051102;28;20024;-75
2024/01/13 05:31:07;;;;;;;2.47;0.22;;;;;;;;;;5051343;28;20017;-75
2024/01/13 05:33:33;;;;;;;4.18;0.60;;;;;;;;;;5051060;28;20028;-75
2024/01/13 05:35:59;;;;;;;1.30;0.35;;;;;;;;;;5049244;28;20040;-74
2024/01/13 05:38:26;;;;;;;1.92;0.47;;;;;;;;;;5050922;28;20056;-75
2024/01/13 05:40:52;;;;;;;3.70;0.70;;;;;;;;;;5049417;28;20028;-75
2024/01/13 05:43:18;;;;;;;6.45;0.60;;;;;;;;;;5049321;28;20013;-74
2024/01/13 05:45:44;;;;;;;4.53;0.70;;;;;;;;;;5050810;28;20009;-74
2024/01/13 05:48:10;;;;;;;1.88;0.55;;;;;;;;;;5050603;28;20229;-75
2024/01/13 05:50:36;;;;;;;3.42;0.50;;;;;;;;;;5050666;28;20021;-75
2024/01/13 05:53:02;;;;;;;2.50;0.40;;;;;;;;;;5049055;28;20519;-75
2024/01/13 05:55:28;;;;;;;3.35;0.60;;;;;;;;;;5050397;28;20047;-75
2024/01/13 05:57:55;;;;;;;2.70;0.40;;;;;;;;;;5049285;28;20017;-74
2024/01/13 06:00:21;;;;;;;2.17;0.55;;;;;;;;;;5049206;28;20396;-75
2024/01/13 06:02:47;;;;;;;3.75;0.40;;;;;;;;;;5050226;28;20032;-75
2024/01/13 06:05:13;;;;;;;2.22;0.50;;;;;;;;;;5048847;28;20021;-75
2024/01/13 06:07:40;;;;;;;6.22;0.73;;;;;;;;;;5050100;28;20378;-75
2024/01/13 06:10:07;;;;;;;6.28;0.50;;;;;;;;;;5050391;28;20155;-81
2024/01/13 06:12:33;;;;;;;3.80;0.70;;;;;;;;;;5049649;28;20025;-79
2024/01/13 06:14:59;;;;;;;3.65;0.50;;;;;;;;;;5048977;28;20262;-76
2024/01/13 06:17:25;;;;;;;2.33;0.43;;;;;;;;;;5051569;28;20563;-76
2024/01/13 06:19:51;;;;;;;4.50;0.52;;;;;;;;;;5050175;28;20139;-76
2024/01/13 06:22:17;;;;;;;6.68;1.13;;;;;;;;;;5047561;28;20175;-76
2024/01/13 06:24:43;;;;;;;3.92;0.40;;;;;;;;;;5049380;28;20048;-76
2024/01/13 06:27:09;;;;;;;3.28;0.75;;;;;;;;;;5046794;28;20492;-76
2024/01/13 06:29:35;;;;;;;3.58;0.70;;;;;;;;;;5048913;28;20052;-76
2024/01/13 06:32:01;;;;;;;4.13;0.80;;;;;;;;;;5046740;28;20021;-76
2024/01/13 06:34:27;;;;;;;6.70;1.00;;;;;;;;;;5048936;28;20028;-76
2024/01/13 06:36:53;;;;;;;5.10;0.98;;;;;;;;;;5048722;28;20060;-76
2024/01/13 06:39:19;;;;;;;10.85;2.65;;;;;;;;;;5047558;28;20005;-76
2024/01/13 06:41:45;;;;;;;15.40;5.05;;;;;;;;;;5047371;28;20031;-76
2024/01/13 06:44:11;;;;;;;18.73;5.40;;;;;;;;;;5049713;28;20017;-76
2024/01/13 06:46:37;;;;;;;24.60;6.95;;;;;;;;;;5049435;28;20020;-77
2024/01/13 06:49:03;;;;;;;28.08;9.13;;;;;;;;;;5049620;28;20010;-76
2024/01/13 06:51:29;;;;;;;35.25;11.98;;;;;;;;;;5048332;28;20362;-76
2024/01/13 06:53:55;;;;;;;38.97;12.63;;;;;;;;;;5049639;28;20044;-75
2024/01/13 06:56:21;;;;;;;39.95;14.57;;;;;;;;;;5048209;28;20032;-75
2024/01/13 06:58:47;;;;;;;48.28;17.20;;;;;;;;;;5049486;28;20017;-75
2024/01/13 07:01:14;;;;;;;45.72;17.67;;;;;;;;;;5049101;28;20033;-75
2024/01/13 07:03:40;;;;;;;52.42;19.45;;;;;;;;;;5048176;28;20021;-77
2024/01/13 07:06:06;;;;;;;54.58;19.85;;;;;;;;;;5049142;28;20017;-76
2024/01/13 07:08:32;;;;;;;45.17;19.95;;;;;;;;;;5049792;28;20091;-77
2024/01/13 07:10:58;;;;;;;48.58;20.10;;;;;;;;;;5047464;28;20302;-76
2024/01/13 07:13:24;;;;;;;54.17;20.10;;;;;;;;;;5047611;28;20033;-76
2024/01/13 07:15:50;;;;;;;50.30;20.55;;;;;;;;;;5046919;28;20051;-78
2024/01/13 07:18:16;;;;;;;57.83;21.77;;;;;;;;;;5036178;28;20017;-77
2024/01/13 07:20:42;;;;;;;52.75;21.27;;;;;;;;;;5036566;28;20021;-77
2024/01/13 07:23:08;;;;;;;60.13;20.33;;;;;;;;;;5048761;28;20359;-76
2024/01/13 07:25:35;;;;;;;58.90;20.92;;;;;;;;;;5047726;28;20013;-79
2024/01/13 07:28:01;;;;;;;67.25;22.15;;;;;;;;;;5047733;28;20100;-78
2024/01/13 07:30:27;;;;;;;60.55;21.20;;;;;;;;;;5048925;28;20147;-78
2024/01/13 07:32:53;;;;;;;60.40;21.27;;;;;;;;;;5047451;28;20381;-78
2024/01/13 07:35:19;;;;;;;57.28;20.70;;;;;;;;;;5048495;28;20049;-77
2024/01/13 07:37:45;;;;;;;57.33;20.13;;;;;;;;;;5048713;28;20029;-81
2024/01/13 07:40:11;;;;;;;67.82;20.15;;;;;;;;;;5049080;28;20131;-81
2024/01/13 07:42:41;;;;;;;67.75;23.40;;;;;;;;;;5047814;28;20029;-82
2024/01/13 07:45:07;;;;;;;64.20;21.63;;;;;;;;;;5054318;28;20017;-81
2024/01/13 07:47:33;;;;;;;68.15;24.35;;;;;;;;;;5054313;28;20044;-81
2024/01/13 07:49:59;;;;;;;64.40;24.20;;;;;;;;;;5055870;28;20098;-81
2024/01/13 07:52:25;;;;;;;65.38;23.40;;;;;;;;;;5055499;28;20676;-81
2024/01/13 07:54:51;;;;;;;64.68;23.95;;;;;;;;;;5053918;28;20074;-83
2024/01/13 07:57:17;;;;;;;69.50;26.13;;;;;;;;;;5054583;28;20313;-83
2024/01/13 07:59:43;;;;;;;75.18;28.70;;;;;;;;;;5054661;28;20021;-79
2024/01/13 08:02:10;;;;;;;76.68;30.17;;;;;;;;;;5053909;28;20481;-79
2024/01/13 08:04:35;;;;;;;83.07;32.80;;;;;;;;;;5055045;28;20013;-79
2024/01/13 08:07:02;;;;;;;84.10;36.38;;;;;;;;;;5052486;28;20028;-79
2024/01/13 08:09:27;;;;;;;97.43;39.30;;;;;;;;;;5054910;28;20009;-79
2024/01/13 08:11:53;;;;;;;95.10;39.10;;;;;;;;;;5054682;28;20021;-79
2024/01/13 08:14:19;;;;;;;90.45;40.30;;;;;;;;;;5053314;28;20108;-79
2024/01/13 08:16:45;;;;;;;91.35;39.70;;;;;;;;;;5053245;28;20020;-79
2024/01/13 08:19:12;;;;;;;90.47;37.53;;;;;;;;;;5053449;28;20154;-79
2024/01/13 08:21:38;;;;;;;98.35;40.30;;;;;;;;;;5054438;28;20032;-79
2024/01/13 08:24:04;;;;;;;92.75;40.30;;;;;;;;;;5053118;28;20025;-79
2024/01/13 08:26:30;;;;;;;89.10;39.58;;;;;;;;;;5054471;28;20001;-79
2024/01/13 08:28:57;;;;;;;83.55;39.25;;;;;;;;;;5054650;28;20024;-79
2024/01/13 08:31:23;;;;;;;89.93;39.28;;;;;;;;;;5054687;28;20550;-79
2024/01/13 08:33:50;;;;;;;89.13;38.35;;;;;;;;;;5054648;28;20025;-79
2024/01/13 08:36:17;;;;;;;85.75;37.03;;;;;;;;;;5052929;28;20043;-79
2024/01/13 08:38:44;;;;;;;89.25;36.05;;;;;;;;;;5053656;28;20067;-79
2024/01/13 08:41:11;;;;;;;82.20;34.88;;;;;;;;;;5053320;28;20029;-79
2024/01/13 08:43:37;;;;;;;78.25;36.45;;;;;;;;;;5053031;28;20005;-79
2024/01/13 08:46:03;;;;;;;86.40;36.35;;;;;;;;;;5052673;28;20214;-79
2024/01/13 08:48:29;;;;;;;90.55;36.22;;;;;;;;;;5052723;28;20009;-79
2024/01/13 08:50:55;;;;;;;81.32;32.92;;;;;;;;;;5052917;28;20020;-79
2024/01/13 08:53:21;;;;;;;72.93;31.23;;;;;;;;;;5052932;28;20441;-79
2024/01/13 08:55:47;;;;;;;70.20;29.00;;;;;;;;;;5049995;28;20063;-79
2024/01/13 08:58:13;;;;;;;67.57;27.70;;;;;;;;;;5050713;28;20387;-80
2024/01/13 09:00:39;;;;;;;58.25;25.73;;;;;;;;;;5050970;28;20045;-79
2024/01/13 09:03:05;;;;;;;56.58;25.13;;;;;;;;;;5052207;28;20039;-79
2024/01/13 09:05:31;;;;;;;58.55;22.83;;;;;;;;;;5050872;28;20016;-79
2024/01/13 09:07:59;;;;;;;53.25;21.63;;;;;;;;;;5050549;28;20013;-79
2024/01/13 09:10:25;;;;;;;54.22;21.00;;;;;;;;;;5041842;28;20016;-79
2024/01/13 09:12:51;;;;;;;52.15;20.95;;;;;;;;;;5041228;28;20013;-80
2024/01/13 09:15:17;;;;;;;52.67;23.17;;;;;;;;;;5035262;28;20017;-80
2024/01/13 09:17:43;;;;;;;57.67;25.55;;;;;;;;;;5036010;28;20017;-80
2024/01/13 09:20:10;;;;;;;68.28;28.63;;;;;;;;;;5050046;28;20094;-79
2024/01/13 09:22:37;;;;;;;63.80;27.80;;;;;;;;;;5049953;28;20028;-79
2024/01/13 09:25:03;;;;;;;61.95;26.90;;;;;;;;;;5051367;28;20017;-79
2024/01/13 09:27:29;;;;;;;59.08;26.20;;;;;;;;;;5050316;28;20040;-79
2024/01/13 09:29:55;;;;;;;62.85;26.17;;;;;;;;;;5051517;28;20377;-79
2024/01/13 09:32:22;;;;;;;60.75;25.58;;;;;;;;;;5050512;28;20028;-79
2024/01/13 09:34:48;;;;;;;51.72;22.90;;;;;;;;;;5050966;28;20017;-79
2024/01/13 09:37:15;;;;;;;49.33;21.75;;;;;;;;;;5049190;28;20413;-79
2024/01/13 09:39:41;;;;;;;51.10;22.05;;;;;;;;;;5050566;28;20012;-79
2024/01/13 09:42:07;;;;;;;50.35;20.58;;;;;;;;;;5049344;28;20037;-79
2024/01/13 09:44:33;;;;;;;53.17;23.55;;;;;;;;;;5049093;28;20013;-80
2024/01/13 09:47:00;;;;;;;41.05;20.20;;;;;;;;;;5050630;28;20500;-79
2024/01/13 09:49:30;;;;;;;44.53;19.95;;;;;;;;;;5049097;28;20017;-80
2024/01/13 09:51:57;;;;;;;44.80;21.13;;;;;;;;;;5050778;28;20021;-79
2024/01/13 09:54:27;;;;;;;40.63;19.52;;;;;;;;;;5049162;28;20017;-79
2024/01/13 09:56:54;;;;;;;43.85;20.77;;;;;;;;;;5049198;28;20024;-79
2024/01/13 09:59:22;;;;;;;42.92;18.83;;;;;;;;;;5050195;28;20040;-79
2024/01/13 10:01:48;;;;;;;39.78;17.17;;;;;;;;;;5050178;28;20021;-80
2024/01/13 10:04:14;;;;;;;38.83;17.75;;;;;;;;;;5049208;28;20017;-80
2024/01/13 10:06:41;;;;;;;40.25;17.02;;;;;;;;;;5049468;28;20020;-79
2024/01/13 10:09:07;;;;;;;39.00;16.83;;;;;;;;;;5048698;28;20025;-79
2024/01/13 10:11:34;;;;;;;40.92;17.52;;;;;;;;;;5050641;28;20024;-79
2024/01/13 10:14:08;;;;;;;35.67;16.05;;;;;;;;;;5050910;28;20024;-79
2024/01/13 10:16:34;;;;;;;36.97;15.80;;;;;;;;;;5049326;28;20013;-79
2024/01/13 10:19:07;;;;;;;36.47;15.02;;;;;;;;;;5049299;28;20013;-79
2024/01/13 10:21:33;;;;;;;29.08;13.70;;;;;;;;;;5049718;28;20029;-79
2024/01/13 10:24:00;;;;;;;31.67;14.13;;;;;;;;;;5052237;28;20043;-79
2024/01/13 10:26:28;;;;;;;30.25;13.13;;;;;;;;;;5050169;28;20081;-79
2024/01/13 10:28:55;;;;;;;33.08;12.85;;;;;;;;;;5048921;28;20013;-79
2024/01/13 10:31:21;;;;;;;32.28;12.27;;;;;;;;;;5043363;28;20130;-79
2024/01/13 10:33:48;;;;;;;31.92;12.07;;;;;;;;;;5042344;28;20017;-79
2024/01/13 10:36:22;;;;;;;27.77;11.35;;;;;;;;;;5042462;28;20088;-80
2024/01/13 10:38:48;;;;;;;24.77;10.75;;;;;;;;;;5055203;28;20481;-80
2024/01/13 10:41:14;;;;;;;26.25;10.48;;;;;;;;;;5049999;28;20025;-79
2024/01/13 10:43:43;;;;;;;19.30;9.50;;;;;;;;;;5049691;28;20016;-79
2024/01/13 10:46:10;;;;;;;25.45;8.18;;;;;;;;;;5048799;28;20017;-76
2024/01/13 10:48:47;;;;;;;21.08;8.18;;;;;;;;;;5049211;28;20017;-76
2024/01/13 10:51:31;;;;;;;17.13;6.50;;;;;;;;;;5050270;28;20020;-76
2024/01/13 10:53:59;;;;;;;16.38;6.82;;;;;;;;;;5050258;28;20024;-78
2024/01/13 10:56:25;;;;;;;18.13;6.25;;;;;;;;;;5050959;28;20096;-78
2024/01/13 10:58:52;;;;;;;15.88;5.63;;;;;;;;;;5049427;28;20025;-78
2024/01/13 11:01:18;;;;;;;17.10;5.72;;;;;;;;;;5050870;28;20120;-78
2024/01/13 11:03:45;;;;;;;14.93;5.32;;;;;;;;;;5049332;28;20056;-77
2024/01/13 11:06:11;;;;;;;13.05;5.05;;;;;;;;;;5048654;28;20016;-78
2024/01/13 11:08:37;;;;;;;15.57;4.90;;;;;;;;;;5049057;28;20021;-77
2024/01/13 11:11:03;;;;;;;12.15;5.78;;;;;;;;;;5053575;28;20021;-78
2024/01/13 11:13:32;;;;;;;11.32;5.45;;;;;;;;;;5067264;28;20020;-78
2024/01/13 11:16:04;;;;;;;13.00;4.80;;;;;;;;;;5049427;28;20032;-77
2024/01/13 11:18:47;;;;;;;6.85;3.33;;;;;;;;;;5049616;28;20033;-77
2024/01/13 11:21:13;;;;;;;14.57;3.20;;;;;;;;;;5030228;28;20020;-77
2024/01/13 11:23:40;;;;;;;11.88;3.28;;;;;;;;;;5028831;28;20064;-77
2024/01/13 11:26:07;;;;;;;7.07;3.10;;;;;;;;;;5051805;28;20005;-77
2024/01/13 11:29:02;;;;;;;10.57;2.35;;;;;;;;;;5061240;28;20051;-77
2024/01/13 11:31:34;;;;;;;7.75;1.90;;;;;;;;;;5045515;28;20055;-77
2024/01/13 11:34:01;;;;;;;5.32;2.70;;;;;;;;;;5029515;28;20326;-78
2024/01/13 11:36:32;;;;;;;8.05;2.30;;;;;;;;;;5048206;28;20036;-78
2024/01/13 11:38:59;;;;;;;12.00;2.85;;;;;;;;;;5050022;28;20429;-77
2024/01/13 11:41:39;;;;;;;6.00;1.92;;;;;;;;;;5050283;28;20402;-77
2024/01/13 11:44:05;;;;;;;7.30;2.20;;;;;;;;;;5048847;28;20101;-79
2024/01/13 11:46:37;;;;;;;11.15;2.45;;;;;;;;;;5049772;28;20013;-76
2024/01/13 11:49:04;;;;;;;5.15;1.83;;;;;;;;;;5048208;28;20009;-80
2024/01/13 11:51:48;;;;;;;9.77;2.97;;;;;;;;;;5048210;28;20071;-80
2024/01/13 11:54:14;;;;;;;9.00;2.35;;;;;;;;;;5048251;28;20116;-79
2024/01/13 11:56:40;;;;;;;8.43;2.10;;;;;;;;;;5047883;28;20035;-79
2024/01/13 11:59:06;;;;;;;6.95;1.85;;;;;;;;;;5049090;28;20013;-79
2024/01/13 12:01:33;;;;;;;9.40;2.33;;;;;;;;;;5037729;28;20380;-79
2024/01/13 12:04:00;;;;;;;8.55;1.67;;;;;;;;;;5051236;28;20143;-77
2024/01/13 12:06:26;;;;;;;10.43;2.53;;;;;;;;;;5065776;28;20016;-78
2024/01/13 12:08:53;;;;;;;5.60;1.85;;;;;;;;;;5067980;28;20036;-77
2024/01/13 12:11:19;;;;;;;10.93;2.20;;;;;;;;;;5051486;28;20055;-78
2024/01/13 12:13:45;;;;;;;6.55;1.80;;;;;;;;;;5045087;28;20445;-77
2024/01/13 12:16:11;;;;;;;6.78;2.20;;;;;;;;;;5062628;28;20016;-77
2024/01/13 12:18:37;;;;;;;9.10;1.90;;;;;;;;;;5069151;28;20013;-77
2024/01/13 12:21:03;;;;;;;10.45;1.70;;;;;;;;;;5055091;28;20044;-77
2024/01/13 12:23:30;;;;;;;6.80;2.15;;;;;;;;;;5047418;28;20075;-77
2024/01/13 12:25:56;;;;;;;8.60;2.30;;;;;;;;;;5048991;28;20082;-77
2024/01/13 12:28:23;;;;;;;5.13;2.10;;;;;;;;;;5048829;28;20435;-77
2024/01/13 12:30:55;;;;;;;6.75;2.45;;;;;;;;;;5050470;28;20484;-77
2024/01/13 12:33:23;;;;;;;5.90;2.50;;;;;;;;;;5052743;28;20009;-77
2024/01/13 12:35:50;;;;;;;10.85;2.78;;;;;;;;;;5052752;28;20094;-77
2024/01/13 12:38:16;;;;;;;9.07;2.40;;;;;;;;;;5051654;28;20021;-77
2024/01/13 12:40:42;;;;;;;5.10;2.22;;;;;;;;;;5052825;28;20027;-77
2024/01/13 12:43:08;;;;;;;8.75;2.28;;;;;;;;;;5051517;28;20017;-77
2024/01/13 12:45:34;;;;;;;10.18;3.03;;;;;;;;;;5051547;28;20048;-77
2024/01/13 12:48:00;;;;;;;6.65;2.10;;;;;;;;;;5052742;28;20010;-77
2024/01/13 12:50:26;;;;;;;7.57;2.00;;;;;;;;;;5051039;28;20046;-77
2024/01/13 12:52:57;;;;;;;8.70;1.98;;;;;;;;;;5050873;28;20043;-77
2024/01/13 12:55:23;;;;;;;6.20;1.75;;;;;;;;;;5052621;28;20009;-77
2024/01/13 12:57:49;;;;;;;6.32;1.60;;;;;;;;;;5052086;28;20324;-77
2024/01/13 13:00:15;;;;;;;7.53;2.20;;;;;;;;;;5050476;28;20108;-77
2024/01/13 13:02:41;;;;;;;9.70;2.25;;;;;;;;;;5052011;28;20405;-77
2024/01/13 13:05:07;;;;;;;6.35;1.80;;;;;;;;;;5052870;28;20436;-78
2024/01/13 13:07:33;;;;;;;11.95;1.80;;;;;;;;;;5050676;28;20435;-78
2024/01/13 13:09:59;;;;;;;9.18;1.58;;;;;;;;;;5050635;28;20009;-77
2024/01/13 13:12:25;;;;;;;13.25;1.90;;;;;;;;;;5050719;28;20017;-76
2024/01/13 13:14:51;;;;;;;10.57;1.73;;;;;;;;;;5051381;28;20044;-77
2024/01/13 13:17:18;;;;;;;8.45;2.13;;;;;;;;;;5051278;28;20029;-77
2024/01/13 13:19:44;;;;;;;8.65;1.40;;;;;;;;;;5038379;28;20025;-77
2024/01/13 13:22:11;;;;;;;7.43;1.10;;;;;;;;;;5048672;28;20028;-77
2024/01/13 13:24:38;;;;;;;9.55;1.42;;;;;;;;;;5051440;28;20016;-77
2024/01/13 13:27:04;;;;;;;7.70;1.08;;;;;;;;;;5052582;28;20036;-77
2024/01/13 13:29:30;;;;;;;13.52;1.50;;;;;;;;;;5052369;28;20009;-77
2024/01/13 13:31:56;;;;;;;12.80;1.75;;;;;;;;;;5050970;28;20021;-77
2024/01/13 13:34:23;;;;;;;11.40;1.63;;;;;;;;;;5051114;28;20102;-77
2024/01/13 13:36:49;;;;;;;10.35;1.58;;;;;;;;;;5052173;28;20060;-77
2024/01/13 13:39:18;;;;;;;9.38;1.70;;;;;;;;;;5055849;28;20020;-77
2024/01/13 13:41:44;;;;;;;12.40;2.17;;;;;;;;;;5065282;28;20032;-77
2024/01/13 13:44:10;;;;;;;9.98;2.35;;;;;;;;;;5065894;28;20017;-77
2024/01/13 13:46:36;;;;;;;14.10;2.42;;;;;;;;;;5051470;28;20019;-77
2024/01/13 13:49:03;;;;;;;8.48;2.10;;;;;;;;;;5051572;28;20457;-77
2024/01/13 13:51:29;;;;;;;12.82;2.42;;;;;;;;;;5050886;28;20036;-77
2024/01/13 13:53:56;;;;;;;7.75;2.65;;;;;;;;;;5057170;28;20017;-77
2024/01/13 13:56:22;;;;;;;12.38;2.65;;;;;;;;;;5057035;28;20384;-77
2024/01/13 13:58:48;;;;;;;16.15;2.45;;;;;;;;;;5053274;28;20019;-77
2024/01/13 14:01:14;;;;;;;12.45;2.33;;;;;;;;;;5050223;28;20024;-77
2024/01/13 14:03:40;;;;;;;14.52;2.63;;;;;;;;;;5050464;28;20017;-77
2024/01/13 14:06:07;;;;;;;12.48;2.33;;;;;;;;;;5052609;28;20005;-77
2024/01/13 14:08:33;;;;;;;19.33;2.60;;;;;;;;;;5051965;28;20025;-77
2024/01/13 14:10:59;;;;;;;16.17;2.13;;;;;;;;;;5050499;28;20044;-77
2024/01/13 14:13:25;;;;;;;11.02;2.30;;;;;;;;;;5050366;28;20484;-77
2024/01/13 14:15:51;;;;;;;15.35;2.15;;;;;;;;;;5050276;28;20041;-77
2024/01/13 14:18:17;;;;;;;11.07;1.92;;;;;;;;;;5050113;28;20477;-77
2024/01/13 14:20:43;;;;;;;8.98;1.83;;;;;;;;;;5051270;28;20013;-77
2024/01/13 14:23:10;;;;;;;11.88;2.55;;;;;;;;;;5049949;28;20500;-77
2024/01/13 14:25:36;;;;;;;10.52;1.90;;;;;;;;;;5051478;28;20016;-77
2024/01/13 14:28:03;;;;;;;21.90;2.22;;;;;;;;;;5051079;28;20017;-77
2024/01/13 14:30:29;;;;;;;12.25;1.85;;;;;;;;;;5052602;28;20219;-77